Time;durP1;ratioP1;P1;durP2;ratioP2;P2;SDS_P1;SDS_P2;PMS_P1;PMS_P2;Temp;Humidity;BMP_temperature;BMP_pressure;BME280_temperature;BME280_humidity;BME280_pressure;Samples;Min_cycle;Max_cycle;Signal;HPM_P1;HPM_P2
2021/10/18 00:00:02;;;;;;;20.80;12.50;;;9.10;99.90;;;;;;4952062;28;20220;-51
2021/10/18 00:02:27;;;;;;;20.63;11.40;;;9.10;99.90;;;;;;4953209;28;20456;-51
2021/10/18 00:04:53;;;;;;;19.77;12.30;;;8.40;99.90;;;;;;4953777;28;20185;-51
2021/10/18 00:07:20;;;;;;;18.50;11.57;;;8.90;99.90;;;;;;4953291;28;20627;-52
2021/10/18 00:09:46;;;;;;;18.02;11.73;;;9.10;99.90;;;;;;4953627;28;20249;-52
2021/10/18 00:12:11;;;;;;;20.77;12.60;;;8.80;99.90;;;;;;4952946;28;20227;-51
2021/10/18 00:14:37;;;;;;;20.00;12.63;;;9.00;99.90;;;;;;4957379;28;20188;-51
2021/10/18 00:17:03;;;;;;;18.47;13.30;;;9.20;99.90;;;;;;4953596;28;20264;-52
2021/10/18 00:19:29;;;;;;;20.87;12.87;;;9.10;99.90;;;;;;4961377;28;20212;-52
2021/10/18 00:21:54;;;;;;;19.10;12.33;;;9.20;99.90;;;;;;4956733;28;20193;-52
2021/10/18 00:24:20;;;;;;;19.53;11.23;;;9.40;99.90;;;;;;4959179;28;20617;-52
2021/10/18 00:26:45;;;;;;;22.60;13.60;;;9.20;99.90;;;;;;4947599;28;20184;-52
2021/10/18 00:29:11;;;;;;;20.97;13.20;;;9.20;99.90;;;;;;4950985;28;20205;-52
2021/10/18 00:31:37;;;;;;;19.10;11.83;;;9.00;99.90;;;;;;4951692;28;20300;-51
2021/10/18 00:34:02;;;;;;;17.37;11.37;;;9.30;99.90;;;;;;4951398;28;20221;-52
2021/10/18 00:36:28;;;;;;;18.37;12.13;;;9.10;99.90;;;;;;4951632;28;20185;-52
2021/10/18 00:38:54;;;;;;;18.10;12.33;;;9.40;99.90;;;;;;4955305;28;20270;-51
2021/10/18 00:41:20;;;;;;;18.27;12.67;;;9.00;99.90;;;;;;4947521;28;20202;-51
2021/10/18 00:43:48;;;;;;;17.80;11.50;;;9.10;99.90;;;;;;4949969;29;20276;-51
2021/10/18 00:46:17;;;;;;;17.25;12.18;;;9.10;99.90;;;;;;4950572;28;20189;-52
2021/10/18 00:48:43;;;;;;;18.35;12.57;;;9.00;99.90;;;;;;4950446;28;20585;-51
2021/10/18 00:51:10;;;;;;;14.30;10.97;;;9.00;99.90;;;;;;4944159;28;20190;-52
2021/10/18 00:53:35;;;;;;;15.27;11.00;;;9.30;99.90;;;;;;4951824;29;20260;-52
2021/10/18 00:56:01;;;;;;;20.80;12.50;;;9.10;99.90;;;;;;4955935;28;20284;-51
2021/10/18 00:58:27;;;;;;;18.73;12.80;;;9.20;99.90;;;;;;4955861;28;20212;-51
2021/10/18 01:00:53;;;;;;;15.80;12.17;;;9.30;99.90;;;;;;4954704;28;20444;-52
2021/10/18 01:03:19;;;;;;;17.60;12.23;;;9.30;99.90;;;;;;4953184;28;20545;-51
2021/10/18 01:05:45;;;;;;;20.13;13.05;;;9.10;99.90;;;;;;4957107;28;20669;-52
2021/10/18 01:08:11;;;;;;;17.80;11.60;;;9.30;99.90;;;;;;4962056;28;20204;-51
2021/10/18 01:10:37;;;;;;;19.20;13.25;;;9.30;99.90;;;;;;4945770;28;20193;-51
2021/10/18 01:13:04;;;;;;;19.13;13.27;;;9.00;99.90;;;;;;4954087;28;20220;-51
2021/10/18 01:15:30;;;;;;;17.95;13.32;;;9.10;99.90;;;;;;4946789;28;20182;-51
2021/10/18 01:17:56;;;;;;;20.13;12.23;;;9.00;99.90;;;;;;4960952;28;20186;-51
2021/10/18 01:20:31;;;;;;;18.07;12.00;;;8.80;99.90;;;;;;4954664;28;20220;-52
2021/10/18 01:22:57;;;;;;;20.65;13.90;;;9.00;99.90;;;;;;4955170;28;20201;-51
2021/10/18 01:25:23;;;;;;;18.38;12.35;;;9.10;99.90;;;;;;4960508;28;20224;-51
2021/10/18 01:27:49;;;;;;;20.27;13.23;;;9.00;99.90;;;;;;4958448;28;20258;-52
2021/10/18 01:30:15;;;;;;;20.98;13.05;;;8.80;99.90;;;;;;4959474;28;21071;-52
2021/10/18 01:32:42;;;;;;;20.73;13.57;;;9.10;99.90;;;;;;4961584;28;20557;-51
2021/10/18 01:35:09;;;;;;;19.60;13.98;;;8.90;99.90;;;;;;4958164;28;20682;-51
2021/10/18 01:37:35;;;;;;;21.73;13.55;;;9.20;99.90;;;;;;4965242;28;20200;-52
2021/10/18 01:40:01;;;;;;;23.53;15.23;;;9.30;99.90;;;;;;4955328;28;20231;-51
2021/10/18 01:42:26;;;;;;;19.67;13.57;;;9.00;99.90;;;;;;4956839;28;20938;-51
2021/10/18 01:44:52;;;;;;;20.00;12.60;;;9.20;99.90;;;;;;4957401;28;20203;-51
2021/10/18 01:47:18;;;;;;;21.50;14.27;;;8.80;99.90;;;;;;4959347;28;20211;-51
2021/10/18 01:49:43;;;;;;;21.40;14.00;;;8.70;99.90;;;;;;4955217;28;20241;-52
2021/10/18 01:52:09;;;;;;;21.77;13.50;;;8.90;99.90;;;;;;4955088;28;20212;-51
2021/10/18 01:54:35;;;;;;;24.00;13.87;;;9.10;99.90;;;;;;4954797;28;20498;-52
2021/10/18 01:57:00;;;;;;;19.63;14.43;;;9.10;99.90;;;;;;4958378;28;20184;-51
2021/10/18 01:59:26;;;;;;;19.73;13.20;;;9.00;99.90;;;;;;4955765;28;20276;-51
2021/10/18 02:01:51;;;;;;;19.00;13.27;;;8.80;99.90;;;;;;4956044;28;20570;-51
2021/10/18 02:04:17;;;;;;;23.83;15.33;;;9.10;99.90;;;;;;4955750;28;20230;-52
2021/10/18 02:06:43;;;;;;;21.40;12.87;;;8.90;99.90;;;;;;4956166;28;20684;-52
2021/10/18 02:09:08;;;;;;;24.47;14.50;;;9.10;99.90;;;;;;4954269;28;20231;-52
2021/10/18 02:11:34;;;;;;;23.43;14.00;;;9.00;99.90;;;;;;4956018;28;20632;-51
2021/10/18 02:13:59;;;;;;;26.43;14.40;;;9.10;99.90;;;;;;4953200;28;20189;-51
2021/10/18 02:16:25;;;;;;;25.63;15.57;;;9.10;99.90;;;;;;4955702;28;20184;-51
2021/10/18 02:18:50;;;;;;;22.50;14.77;;;9.40;99.90;;;;;;4955139;28;20201;-51
2021/10/18 02:21:16;;;;;;;20.10;13.20;;;9.00;99.90;;;;;;4959048;28;20664;-51
2021/10/18 02:23:42;;;;;;;27.80;14.60;;;9.30;99.90;;;;;;4955137;28;20626;-51
2021/10/18 02:26:07;;;;;;;22.67;14.47;;;9.20;99.90;;;;;;4953382;28;20187;-52
2021/10/18 02:28:33;;;;;;;20.10;14.27;;;9.00;99.90;;;;;;4954181;28;20663;-51
2021/10/18 02:30:58;;;;;;;22.83;14.37;;;9.10;99.90;;;;;;4955936;28;20193;-51
2021/10/18 02:33:24;;;;;;;22.63;13.90;;;9.50;99.90;;;;;;4955003;28;20579;-52
2021/10/18 02:35:49;;;;;;;19.80;13.03;;;9.30;99.90;;;;;;4956096;28;20292;-51
2021/10/18 02:38:15;;;;;;;22.47;14.40;;;9.50;99.90;;;;;;4954479;28;20185;-52
2021/10/18 02:40:41;;;;;;;22.70;14.13;;;9.30;99.90;;;;;;4955493;28;20694;-51
2021/10/18 02:43:06;;;;;;;24.20;14.03;;;9.40;99.90;;;;;;4953775;28;20224;-52
2021/10/18 02:45:32;;;;;;;23.33;13.70;;;9.40;99.90;;;;;;4955510;28;20826;-51
2021/10/18 02:47:58;;;;;;;24.20;15.37;;;9.10;99.90;;;;;;4952891;28;20189;-51
2021/10/18 02:50:23;;;;;;;21.83;14.50;;;8.80;99.90;;;;;;4954247;28;20212;-51
2021/10/18 02:52:49;;;;;;;29.03;15.80;;;9.10;99.90;;;;;;4953355;28;20220;-51
2021/10/18 02:55:14;;;;;;;25.67;14.97;;;9.30;99.90;;;;;;4958663;28;20196;-51
2021/10/18 02:57:40;;;;;;;25.73;16.03;;;9.30;99.90;;;;;;4953062;28;20189;-51
2021/10/18 03:00:06;;;;;;;23.57;14.90;;;9.30;99.90;;;;;;4952631;28;20686;-52
2021/10/18 03:02:32;;;;;;;26.35;16.75;;;9.20;99.90;;;;;;4959194;28;20222;-51
2021/10/18 03:04:57;;;;;;;30.23;17.90;;;9.00;99.90;;;;;;4959133;28;20659;-51
2021/10/18 03:07:23;;;;;;;26.67;16.27;;;9.10;99.90;;;;;;4963723;28;20200;-51
2021/10/18 03:09:49;;;;;;;29.40;15.37;;;9.30;99.90;;;;;;4954097;28;20303;-51
2021/10/18 03:12:14;;;;;;;27.57;16.97;;;9.10;99.90;;;;;;4957514;28;20209;-51
2021/10/18 03:14:40;;;;;;;27.00;15.93;;;9.30;99.90;;;;;;4953800;28;20280;-52
2021/10/18 03:17:05;;;;;;;26.77;15.67;;;8.90;99.90;;;;;;4959947;28;20653;-51
2021/10/18 03:19:31;;;;;;;30.33;18.13;;;9.20;99.90;;;;;;4953948;28;20224;-51
2021/10/18 03:21:57;;;;;;;24.77;15.60;;;9.30;99.90;;;;;;4963243;28;20208;-51
2021/10/18 03:24:22;;;;;;;24.67;15.40;;;8.80;99.90;;;;;;4955736;28;20434;-51
2021/10/18 03:26:48;;;;;;;25.13;15.07;;;9.20;99.90;;;;;;4963353;28;20664;-51
2021/10/18 03:29:13;;;;;;;23.67;15.30;;;9.40;99.90;;;;;;4955644;28;20217;-52
2021/10/18 03:31:39;;;;;;;23.83;15.10;;;9.30;99.90;;;;;;4957541;28;20228;-52
2021/10/18 03:34:05;;;;;;;23.97;13.90;;;9.40;99.90;;;;;;4957371;28;20204;-52
2021/10/18 03:36:31;;;;;;;24.10;14.55;;;9.30;99.90;;;;;;4955836;28;20177;-52
2021/10/18 03:38:57;;;;;;;22.67;13.50;;;9.40;99.90;;;;;;4958705;28;20220;-51
2021/10/18 03:41:23;;;;;;;27.03;14.30;;;9.60;99.90;;;;;;4958817;28;20414;-52
2021/10/18 03:43:48;;;;;;;25.30;15.50;;;9.60;99.90;;;;;;4952996;28;20193;-52
2021/10/18 03:46:14;;;;;;;25.40;16.37;;;9.20;99.90;;;;;;4959825;28;20181;-52
2021/10/18 03:48:40;;;;;;;24.50;15.70;;;9.40;99.90;;;;;;4952377;28;20442;-51
2021/10/18 03:51:05;;;;;;;25.83;15.20;;;9.20;99.90;;;;;;4964132;28;20195;-51
2021/10/18 03:53:31;;;;;;;25.13;14.90;;;9.10;99.90;;;;;;4965504;28;20220;-51
2021/10/18 03:55:56;;;;;;;20.50;14.13;;;9.20;99.90;;;;;;4954229;28;20224;-51
2021/10/18 03:58:22;;;;;;;20.10;13.47;;;9.00;99.90;;;;;;4954176;28;20189;-52
2021/10/18 04:00:48;;;;;;;24.87;15.63;;;9.30;99.90;;;;;;4955894;28;20312;-51
2021/10/18 04:03:13;;;;;;;23.70;15.60;;;9.30;99.90;;;;;;4959628;28;20307;-52
2021/10/18 04:05:39;;;;;;;21.87;15.57;;;9.30;99.90;;;;;;4953541;28;20336;-52
2021/10/18 04:08:05;;;;;;;23.30;14.67;;;9.40;99.90;;;;;;4959098;28;20685;-51
2021/10/18 04:10:32;;;;;;;21.80;13.90;;;9.00;99.90;;;;;;4958995;28;20694;-51
2021/10/18 04:13:02;;;;;;;25.67;15.60;;;9.30;99.90;;;;;;4952363;28;20344;-51
2021/10/18 04:15:27;;;;;;;23.70;15.18;;;9.10;99.90;;;;;;4949022;28;20193;-51
2021/10/18 04:17:53;;;;;;;27.00;15.63;;;9.20;99.90;;;;;;4960982;28;20700;-51
2021/10/18 04:20:19;;;;;;;26.10;15.53;;;9.20;99.90;;;;;;4948372;28;20201;-52
2021/10/18 04:22:46;;;;;;;21.60;14.93;;;9.60;99.90;;;;;;4951631;28;20187;-52
2021/10/18 04:25:13;;;;;;;24.77;15.88;;;9.40;99.90;;;;;;4944245;29;20552;-51
2021/10/18 04:27:39;;;;;;;24.77;15.90;;;9.50;99.90;;;;;;4950087;28;20191;-51
2021/10/18 04:30:05;;;;;;;22.17;13.73;;;9.20;99.90;;;;;;4948327;28;20208;-51
2021/10/18 04:32:31;;;;;;;23.52;16.15;;;9.30;99.90;;;;;;4951001;28;20702;-51
2021/10/18 04:34:57;;;;;;;26.57;16.33;;;9.10;99.90;;;;;;4949944;28;20189;-52
2021/10/18 04:37:22;;;;;;;23.80;14.87;;;9.40;99.90;;;;;;4951704;28;20622;-52
2021/10/18 04:39:48;;;;;;;23.67;15.33;;;9.60;99.90;;;;;;4951896;28;20603;-51
2021/10/18 04:42:13;;;;;;;27.87;17.60;;;9.70;99.90;;;;;;4951829;28;20286;-52
2021/10/18 04:44:39;;;;;;;24.93;16.37;;;9.90;99.90;;;;;;4951551;28;20222;-51
2021/10/18 04:47:05;;;;;;;31.00;16.23;;;9.50;99.90;;;;;;4950187;28;20244;-52
2021/10/18 04:49:31;;;;;;;22.90;14.70;;;9.40;99.90;;;;;;4955323;28;20213;-52
2021/10/18 04:51:56;;;;;;;27.47;17.43;;;9.40;99.90;;;;;;4955293;28;20480;-51
2021/10/18 04:54:22;;;;;;;23.67;15.50;;;9.60;99.90;;;;;;4956616;28;20532;-51
2021/10/18 04:56:47;;;;;;;26.13;18.67;;;9.80;99.90;;;;;;4958247;28;20216;-53
2021/10/18 04:59:13;;;;;;;24.80;16.50;;;9.70;99.90;;;;;;4955156;29;20220;-54
2021/10/18 05:01:38;;;;;;;25.80;15.83;;;9.70;99.90;;;;;;4955152;28;20199;-52
2021/10/18 05:04:04;;;;;;;26.57;16.90;;;9.90;99.90;;;;;;4955843;29;20207;-51
2021/10/18 05:06:30;;;;;;;29.63;18.03;;;10.10;99.90;;;;;;4955182;29;20217;-52
2021/10/18 05:08:55;;;;;;;25.00;16.20;;;10.00;99.90;;;;;;4969649;28;20220;-53
2021/10/18 05:11:21;;;;;;;24.00;16.57;;;9.90;99.90;;;;;;4957978;28;20203;-51
2021/10/18 05:13:47;;;;;;;23.60;15.30;;;9.80;99.90;;;;;;4954326;28;20333;-52
2021/10/18 05:16:12;;;;;;;23.70;15.37;;;9.70;99.90;;;;;;4953349;28;20605;-51
2021/10/18 05:18:38;;;;;;;25.87;15.90;;;9.80;99.90;;;;;;4954039;28;20232;-51
2021/10/18 05:21:06;;;;;;;22.93;15.73;;;10.10;99.90;;;;;;4949784;28;20608;-52
2021/10/18 05:23:32;;;;;;;26.80;17.05;;;9.80;99.90;;;;;;4955492;28;20196;-52
2021/10/18 05:25:58;;;;;;;26.05;16.35;;;9.80;99.90;;;;;;4958861;28;20193;-51
2021/10/18 05:28:24;;;;;;;25.37;15.83;;;10.00;99.90;;;;;;4957149;28;20193;-52
2021/10/18 05:30:49;;;;;;;26.93;16.37;;;9.70;99.90;;;;;;4957211;28;20422;-52
2021/10/18 05:33:15;;;;;;;25.13;16.23;;;9.70;99.90;;;;;;4958167;28;20205;-52
2021/10/18 05:35:41;;;;;;;26.27;16.97;;;9.70;99.90;;;;;;4958013;28;20279;-52
2021/10/18 05:38:06;;;;;;;25.03;15.10;;;9.80;99.90;;;;;;4958487;28;20184;-51
2021/10/18 05:40:32;;;;;;;26.00;16.67;;;9.70;99.90;;;;;;4954840;28;20207;-50
2021/10/18 05:42:58;;;;;;;26.53;16.80;;;9.80;99.90;;;;;;4953570;28;20193;-49
2021/10/18 05:45:24;;;;;;;27.45;17.55;;;10.10;99.90;;;;;;4949758;28;20669;-54
2021/10/18 05:47:51;;;;;;;26.08;15.68;;;9.90;99.90;;;;;;4955996;28;20202;-54
2021/10/18 05:50:17;;;;;;;26.45;15.90;;;10.00;99.90;;;;;;4951927;28;20592;-53
2021/10/18 05:52:43;;;;;;;24.30;15.70;;;9.70;99.90;;;;;;4950734;28;20205;-55
2021/10/18 05:55:08;;;;;;;25.57;17.03;;;9.90;99.90;;;;;;4954227;29;20976;-55
2021/10/18 05:57:47;;;;;;;26.53;15.80;;;9.80;99.90;;;;;;4949755;28;20261;-55
2021/10/18 06:00:13;;;;;;;27.45;18.23;;;9.70;99.90;;;;;;4953112;28;20457;-55
2021/10/18 06:02:39;;;;;;;26.00;18.07;;;9.60;99.90;;;;;;4967907;28;20276;-55
2021/10/18 06:05:05;;;;;;;33.23;19.60;;;9.90;99.90;;;;;;4952764;28;20448;-55
2021/10/18 06:07:31;;;;;;;25.67;17.03;;;9.60;99.90;;;;;;4953296;28;20203;-55
2021/10/18 06:09:56;;;;;;;26.87;17.10;;;9.90;99.90;;;;;;4952283;28;20228;-54
2021/10/18 06:12:22;;;;;;;28.17;17.50;;;9.60;99.90;;;;;;4953674;28;20221;-51
2021/10/18 06:14:47;;;;;;;27.07;16.80;;;9.70;99.90;;;;;;4951395;28;23254;-50
2021/10/18 06:17:13;;;;;;;30.33;18.30;;;10.00;99.90;;;;;;4950882;28;20264;-50
2021/10/18 06:19:39;;;;;;;28.47;16.73;;;9.70;99.90;;;;;;4952371;28;20204;-50
2021/10/18 06:22:04;;;;;;;27.23;17.37;;;9.90;99.90;;;;;;4952919;29;20228;-51
2021/10/18 06:24:30;;;;;;;24.33;16.70;;;9.80;99.90;;;;;;4953004;28;20189;-50
2021/10/18 06:26:56;;;;;;;31.83;17.33;;;9.60;99.90;;;;;;4953620;29;20244;-52
2021/10/18 06:29:21;;;;;;;26.27;17.40;;;10.00;99.90;;;;;;4952487;28;20213;-51
2021/10/18 06:31:47;;;;;;;30.00;16.83;;;10.10;99.90;;;;;;4954387;28;20220;-51
2021/10/18 06:34:13;;;;;;;25.93;16.40;;;10.20;99.90;;;;;;4955771;28;20236;-52
2021/10/18 06:36:38;;;;;;;25.70;16.23;;;10.30;99.90;;;;;;4956777;28;20221;-51
2021/10/18 06:39:04;;;;;;;25.00;15.83;;;10.50;99.90;;;;;;4953547;29;20211;-50
2021/10/18 06:41:30;;;;;;;26.53;15.77;;;10.50;99.90;;;;;;4954005;28;20256;-50
2021/10/18 06:43:56;;;;;;;27.37;17.50;;;10.40;99.90;;;;;;4953996;28;20526;-52
2021/10/18 06:46:21;;;;;;;26.67;16.60;;;10.50;99.90;;;;;;4951164;28;20227;-50
2021/10/18 06:48:47;;;;;;;23.17;15.37;;;10.80;99.90;;;;;;4953419;28;20227;-50
2021/10/18 06:51:13;;;;;;;28.80;16.90;;;10.40;99.90;;;;;;4955573;28;20308;-51
2021/10/18 06:53:39;;;;;;;23.17;15.63;;;10.60;99.90;;;;;;4958999;28;20224;-51
2021/10/18 06:56:06;;;;;;;30.35;17.40;;;10.30;99.90;;;;;;4953021;28;20189;-49
2021/10/18 06:58:33;;;;;;;24.42;15.70;;;10.20;99.90;;;;;;4950797;28;20237;-51
2021/10/18 07:01:00;;;;;;;23.85;15.20;;;10.10;99.90;;;;;;4953465;28;20201;-50
2021/10/18 07:03:26;;;;;;;27.17;16.35;;;10.10;99.90;;;;;;4954183;28;20239;-50
2021/10/18 07:05:51;;;;;;;21.03;15.27;;;10.20;99.90;;;;;;4953667;28;20177;-50
2021/10/18 07:08:17;;;;;;;19.67;14.53;;;10.40;99.90;;;;;;4952526;28;20962;-50
2021/10/18 07:10:43;;;;;;;20.00;15.13;;;10.50;99.90;;;;;;4950153;28;20891;-51
2021/10/18 07:13:09;;;;;;;22.08;14.75;;;10.60;99.90;;;;;;4951701;28;20478;-50
2021/10/18 07:15:39;;;;;;;25.43;15.67;;;10.60;99.90;;;;;;4951275;28;20271;-51
2021/10/18 07:18:07;;;;;;;22.27;14.23;;;10.70;99.90;;;;;;4951861;28;20452;-50
2021/10/18 07:20:33;;;;;;;19.30;14.13;;;10.80;99.90;;;;;;4951159;28;20185;-51
2021/10/18 07:23:00;;;;;;;14.57;11.50;;;11.00;99.90;;;;;;4950866;29;20181;-49
2021/10/18 07:25:27;;;;;;;16.27;12.30;;;10.90;99.90;;;;;;4953427;28;20657;-49
2021/10/18 07:27:52;;;;;;;15.32;12.27;;;10.90;99.90;;;;;;4953633;28;20196;-49
2021/10/18 07:30:19;;;;;;;17.23;12.13;;;10.80;99.90;;;;;;4959492;28;20201;-49
2021/10/18 07:32:45;;;;;;;17.27;12.45;;;10.80;99.90;;;;;;4951626;28;20937;-49
2021/10/18 07:35:14;;;;;;;18.73;13.13;;;10.60;99.90;;;;;;4952159;28;20264;-48
2021/10/18 07:37:40;;;;;;;16.15;13.07;;;11.10;99.90;;;;;;4959353;28;20676;-50
2021/10/18 07:40:07;;;;;;;19.23;14.63;;;10.90;99.90;;;;;;4951417;28;20213;-51
2021/10/18 07:42:33;;;;;;;16.52;12.07;;;11.10;99.90;;;;;;4956397;28;20188;-50
2021/10/18 07:44:59;;;;;;;19.63;12.60;;;11.00;99.90;;;;;;4952455;28;20244;-51
2021/10/18 07:47:25;;;;;;;16.80;12.90;;;11.20;99.90;;;;;;4948982;28;20196;-51
2021/10/18 07:49:52;;;;;;;18.75;13.38;;;10.90;99.90;;;;;;4951586;28;20469;-51
2021/10/18 07:52:18;;;;;;;19.50;14.25;;;11.10;99.90;;;;;;4951531;29;20205;-49
2021/10/18 07:54:46;;;;;;;18.73;14.60;;;10.90;99.90;;;;;;4951274;28;20182;-50
2021/10/18 07:57:12;;;;;;;16.55;12.65;;;11.00;99.90;;;;;;4951292;28;20657;-51
2021/10/18 07:59:38;;;;;;;19.67;13.52;;;11.30;99.90;;;;;;4955482;28;20208;-49
2021/10/18 08:02:04;;;;;;;20.03;14.13;;;11.20;99.90;;;;;;4952834;28;20216;-50
2021/10/18 08:04:29;;;;;;;18.13;13.57;;;11.10;99.90;;;;;;4952107;28;20643;-50
2021/10/18 08:06:55;;;;;;;19.40;13.20;;;11.00;99.90;;;;;;4948814;29;20711;-50
2021/10/18 08:09:23;;;;;;;18.90;12.93;;;10.90;99.90;;;;;;4952504;28;20212;-49
2021/10/18 08:11:49;;;;;;;20.17;13.63;;;11.20;99.90;;;;;;4952522;29;20472;-51
2021/10/18 08:14:16;;;;;;;21.73;14.83;;;11.10;99.90;;;;;;4948927;28;20182;-51
2021/10/18 08:16:42;;;;;;;18.38;13.52;;;11.00;99.90;;;;;;4958387;28;20537;-51
2021/10/18 08:19:08;;;;;;;20.90;15.07;;;10.90;99.90;;;;;;4956042;28;20201;-49
2021/10/18 08:21:34;;;;;;;22.33;16.17;;;10.90;99.90;;;;;;4952654;29;20184;-50
2021/10/18 08:23:59;;;;;;;19.60;15.07;;;10.90;99.90;;;;;;4952370;28;20188;-51
2021/10/18 08:26:25;;;;;;;20.60;15.00;;;11.10;99.90;;;;;;4954013;28;20566;-49
2021/10/18 08:28:51;;;;;;;21.60;14.67;;;10.90;99.90;;;;;;4953826;28;20623;-49
2021/10/18 08:31:16;;;;;;;19.10;13.77;;;11.10;99.90;;;;;;4955462;28;20189;-49
2021/10/18 08:33:42;;;;;;;17.67;12.97;;;11.10;99.90;;;;;;4956798;28;20210;-49
2021/10/18 08:36:08;;;;;;;19.42;14.98;;;11.30;99.90;;;;;;4956835;29;20189;-50
2021/10/18 08:38:47;;;;;;;22.60;16.70;;;11.60;99.90;;;;;;4955916;29;20224;-50
2021/10/18 08:46:22;;;;;;;19.98;14.68;;;11.50;99.90;;;;;;4956069;28;20182;-50
2021/10/18 08:48:53;;;;;;;21.52;15.23;;;11.50;99.90;;;;;;4956329;28;20198;-57
2021/10/18 08:51:19;;;;;;;20.05;15.18;;;11.60;99.90;;;;;;4959076;28;20197;-50
2021/10/18 08:53:45;;;;;;;19.13;14.38;;;11.30;99.90;;;;;;4955092;28;20416;-50
2021/10/18 08:56:11;;;;;;;21.25;15.90;;;11.60;99.90;;;;;;4957494;29;20200;-50
2021/10/18 08:58:38;;;;;;;17.45;14.27;;;11.20;99.90;;;;;;4957406;28;20205;-50
2021/10/18 09:01:04;;;;;;;21.42;14.55;;;11.20;99.90;;;;;;4957506;29;20184;-50
2021/10/18 09:03:32;;;;;;;18.83;15.00;;;11.20;99.90;;;;;;4956708;28;20264;-50
2021/10/18 09:06:17;;;;;;;20.35;14.65;;;11.30;99.90;;;;;;4956687;29;20440;-48
2021/10/18 09:08:54;;;;;;;17.38;13.82;;;11.50;99.90;;;;;;4956856;28;20220;-49
2021/10/18 09:11:26;;;;;;;19.15;14.75;;;11.20;99.90;;;;;;4956537;28;20196;-49
2021/10/18 09:13:52;;;;;;;21.00;14.77;;;11.20;99.90;;;;;;4957579;28;20198;-49
2021/10/18 09:16:38;;;;;;;20.90;14.27;;;11.10;99.90;;;;;;4957535;29;20718;-51
2021/10/18 09:19:25;;;;;;;21.30;16.17;;;11.10;99.90;;;;;;4957322;28;20236;-49
2021/10/18 09:21:56;;;;;;;20.85;15.68;;;11.10;99.90;;;;;;4956831;28;20190;-50
2021/10/18 09:24:34;;;;;;;19.80;15.57;;;11.30;99.90;;;;;;4956915;28;20287;-50
2021/10/18 09:27:05;;;;;;;21.65;16.10;;;11.20;99.90;;;;;;4956610;28;20190;-50
2021/10/18 09:29:52;;;;;;;18.15;14.68;;;11.30;99.90;;;;;;4972210;28;20201;-50
2021/10/18 09:32:20;;;;;;;19.98;14.68;;;11.50;99.90;;;;;;4956791;29;20209;-51
2021/10/18 09:34:46;;;;;;;20.42;14.23;;;11.50;99.90;;;;;;4949626;28;20547;-51
2021/10/18 09:37:14;;;;;;;20.08;14.35;;;11.30;99.90;;;;;;4959405;28;20205;-51
2021/10/18 09:39:49;;;;;;;17.65;13.88;;;11.20;99.90;;;;;;4960785;28;20209;-50
2021/10/18 09:42:17;;;;;;;18.23;14.35;;;11.70;99.90;;;;;;4959204;28;20188;-50
2021/10/18 10:52:50;;;;;;;16.73;13.93;;;13.30;99.90;;;;;;4953322;28;20753;-50
2021/10/18 10:55:32;;;;;;;18.02;13.65;;;14.50;99.90;;;;;;4957401;28;20188;-51
2021/10/18 10:58:22;;;;;;;16.42;14.52;;;15.20;99.50;;;;;;4952084;29;20175;-51
2021/10/18 11:00:48;;;;;;;18.80;14.95;;;14.90;98.80;;;;;;4959675;28;20259;-49
2021/10/18 11:03:41;;;;;;;14.73;13.07;;;15.30;98.60;;;;;;4960022;28;20664;-50
2021/10/18 11:06:12;;;;;;;15.57;12.98;;;15.50;97.90;;;;;;4951407;28;20189;-51
2021/10/18 11:08:42;;;;;;;15.30;13.60;;;15.40;97.80;;;;;;4953352;28;20240;-50
2021/10/18 11:11:19;;;;;;;15.15;12.90;;;15.60;97.60;;;;;;4955801;28;20607;-51
2021/10/18 11:13:46;;;;;;;14.63;13.00;;;15.70;97.30;;;;;;4959160;28;20196;-51
2021/10/18 11:16:12;;;;;;;18.25;14.90;;;16.00;96.50;;;;;;4952775;28;20606;-51
2021/10/18 11:18:39;;;;;;;16.25;13.90;;;16.00;96.20;;;;;;4953469;29;20266;-50
2021/10/18 11:21:35;;;;;;;16.33;14.07;;;16.10;96.50;;;;;;4956038;28;20191;-52
2021/10/18 11:24:09;;;;;;;17.83;13.73;;;16.70;95.30;;;;;;4950918;28;20207;-52
2021/10/18 11:26:40;;;;;;;16.00;13.88;;;16.40;94.70;;;;;;4958439;28;20181;-51
2021/10/18 11:29:10;;;;;;;14.88;13.30;;;16.90;94.80;;;;;;4956759;28;20204;-51
2021/10/18 11:31:40;;;;;;;14.40;12.30;;;16.50;94.60;;;;;;4952718;28;20260;-51
2021/10/18 11:34:09;;;;;;;17.13;13.68;;;16.50;94.70;;;;;;4958288;28;20180;-50
2021/10/18 11:36:40;;;;;;;17.90;14.93;;;16.30;94.90;;;;;;4946555;28;20284;-50
2021/10/18 11:39:25;;;;;;;17.63;14.43;;;15.30;96.50;;;;;;4941046;29;20193;-50
2021/10/18 11:42:13;;;;;;;17.60;14.50;;;15.20;97.50;;;;;;4953744;28;20185;-50
2021/10/18 11:44:54;;;;;;;16.95;13.45;;;14.80;98.40;;;;;;4954228;28;20192;-50
2021/10/18 11:47:21;;;;;;;16.70;13.27;;;15.10;98.50;;;;;;4954719;28;20662;-51
2021/10/18 11:50:12;;;;;;;14.90;13.15;;;14.80;98.60;;;;;;4953129;28;20252;-50
2021/10/18 11:52:41;;;;;;;17.08;13.88;;;14.60;98.20;;;;;;4945435;29;20648;-51
2021/10/18 11:55:12;;;;;;;18.08;14.23;;;14.70;98.70;;;;;;4952534;28;20231;-51
2021/10/18 11:57:41;;;;;;;16.95;14.52;;;14.50;99.10;;;;;;4956791;28;20261;-49
2021/10/18 12:00:17;;;;;;;16.25;12.38;;;14.70;99.50;;;;;;4951840;28;20211;-51
2021/10/18 12:02:45;;;;;;;16.45;13.80;;;14.30;99.50;;;;;;4953280;28;20537;-52
2021/10/18 12:05:11;;;;;;;15.57;13.35;;;14.30;99.30;;;;;;4955792;28;20214;-52
2021/10/18 12:07:57;;;;;;;15.63;13.90;;;14.30;99.50;;;;;;4956763;28;20252;-51
2021/10/18 12:10:28;;;;;;;16.38;14.00;;;14.50;99.30;;;;;;4952360;28;20303;-52
2021/10/18 12:13:07;;;;;;;15.55;13.85;;;14.50;99.20;;;;;;4950944;28;20271;-52
2021/10/18 12:15:51;;;;;;;15.00;13.38;;;14.60;99.40;;;;;;4956242;28;20233;-53
2021/10/18 12:18:20;;;;;;;14.48;12.88;;;14.80;99.70;;;;;;4952250;28;20219;-51
2021/10/18 12:20:48;;;;;;;14.82;12.88;;;14.70;99.40;;;;;;4952084;28;20177;-52
2021/10/18 12:23:18;;;;;;;16.80;13.60;;;14.90;99.60;;;;;;4952740;29;20662;-50
2021/10/18 12:25:55;;;;;;;15.13;13.23;;;14.70;99.10;;;;;;4951767;28;20655;-49
2021/10/18 12:28:40;;;;;;;15.05;13.45;;;14.60;99.20;;;;;;4952387;28;20197;-49
2021/10/18 12:31:25;;;;;;;15.55;13.93;;;14.30;99.80;;;;;;4954638;28;20183;-49
2021/10/18 12:34:18;;;;;;;16.77;14.93;;;14.70;99.80;;;;;;4952458;28;20208;-49
2021/10/18 12:37:05;;;;;;;15.10;13.52;;;14.50;99.50;;;;;;4951345;28;20337;-49
2021/10/18 12:39:40;;;;;;;15.88;13.80;;;14.60;99.50;;;;;;4952863;28;20213;-51
2021/10/18 12:42:08;;;;;;;16.15;14.20;;;14.60;99.40;;;;;;4954822;28;20192;-51
2021/10/18 12:44:43;;;;;;;15.95;13.43;;;14.70;99.40;;;;;;4954203;28;20181;-51
2021/10/18 12:47:20;;;;;;;17.30;14.32;;;14.20;99.20;;;;;;4948079;28;20665;-51
2021/10/18 12:49:54;;;;;;;19.25;15.27;;;14.90;99.70;;;;;;4962693;28;20211;-51
2021/10/18 12:52:31;;;;;;;15.10;13.50;;;14.80;99.50;;;;;;4952574;28;20575;-50
2021/10/18 12:54:57;;;;;;;16.08;13.57;;;14.80;99.20;;;;;;4958427;28;20187;-52
2021/10/18 12:57:31;;;;;;;19.33;13.73;;;15.10;99.40;;;;;;4954457;28;20216;-52
2021/10/18 13:00:09;;;;;;;14.60;12.07;;;14.90;99.00;;;;;;4955606;28;20209;-50
2021/10/18 13:02:39;;;;;;;15.13;13.60;;;15.30;99.00;;;;;;4954283;28;20201;-51
2021/10/18 13:05:12;;;;;;;14.23;12.73;;;14.80;98.90;;;;;;4954756;28;20196;-52
2021/10/18 13:07:41;;;;;;;14.65;12.45;;;14.90;99.20;;;;;;4951299;28;20224;-52
2021/10/18 13:10:09;;;;;;;16.55;13.93;;;15.00;99.20;;;;;;4952889;28;20213;-52
2021/10/18 13:12:35;;;;;;;18.55;12.80;;;15.10;98.40;;;;;;4955957;28;20201;-52
2021/10/18 13:15:01;;;;;;;17.30;13.73;;;14.90;98.00;;;;;;4955415;28;20211;-52
2021/10/18 13:17:27;;;;;;;15.90;12.63;;;15.10;98.80;;;;;;4958410;28;20448;-52
2021/10/18 13:19:54;;;;;;;14.33;12.90;;;14.90;98.50;;;;;;4961967;28;20607;-53
2021/10/18 13:22:21;;;;;;;14.45;12.32;;;15.20;98.00;;;;;;4954731;28;20651;-51
2021/10/18 13:24:47;;;;;;;15.05;12.30;;;15.40;98.20;;;;;;4957956;28;20224;-51
2021/10/18 13:27:13;;;;;;;15.00;12.63;;;15.50;98.20;;;;;;4956906;28;20666;-51
2021/10/18 13:29:39;;;;;;;13.93;12.30;;;15.20;98.00;;;;;;4958294;28;20217;-52
2021/10/18 13:32:05;;;;;;;13.90;12.47;;;15.50;98.10;;;;;;4956024;28;20476;-53
2021/10/18 13:34:33;;;;;;;13.43;12.02;;;15.40;98.40;;;;;;4961014;28;20185;-52
2021/10/18 13:37:00;;;;;;;12.98;11.05;;;15.50;97.90;;;;;;4986918;23;20314;-56
2021/10/18 13:39:26;;;;;;;13.25;11.20;;;15.50;97.80;;;;;;4994026;28;20242;-56
2021/10/18 13:41:52;;;;;;;13.68;11.40;;;15.40;97.80;;;;;;4971048;28;20656;-56
2021/10/18 13:44:19;;;;;;;12.23;10.98;;;15.10;98.00;;;;;;4990233;28;20188;-56
2021/10/18 13:46:44;;;;;;;14.55;11.98;;;15.50;98.20;;;;;;4980822;28;20184;-58